sensor_id;sensor_type;location;lat;lon;timestamp;P1;durP1;ratioP1;P2;durP2;ratioP2
67717;SDS011;54511;47.532;19.180;2023-05-07T00:02:27;7.65;;;3.15;;
67717;SDS011;54511;47.532;19.180;2023-05-07T00:05:14;5.05;;;3.22;;
67717;SDS011;54511;47.532;19.180;2023-05-07T00:08:30;4.70;;;1.98;;
67717;SDS011;54511;47.532;19.180;2023-05-07T00:11:43;3.62;;;2.78;;
67717;SDS011;54511;47.532;19.180;2023-05-07T00:14:53;3.30;;;2.70;;
67717;SDS011;54511;47.532;19.180;2023-05-07T00:18:02;2.22;;;1.92;;
67717;SDS011;54511;47.532;19.180;2023-05-07T00:21:10;5.47;;;3.40;;
67717;SDS011;54511;47.532;19.180;2023-05-07T00:24:17;4.75;;;3.30;;
67717;SDS011;54511;47.532;19.180;2023-05-07T00:27:47;2.70;;;1.92;;
67717;SDS011;54511;47.532;19.180;2023-05-07T00:30:58;4.97;;;2.85;;
67717;SDS011;54511;47.532;19.180;2023-05-07T00:34:05;3.80;;;1.98;;
67717;SDS011;54511;47.532;19.180;2023-05-07T00:37:13;3.30;;;1.95;;
67717;SDS011;54511;47.532;19.180;2023-05-07T00:40:42;4.12;;;2.40;;
67717;SDS011;54511;47.532;19.180;2023-05-07T00:43:29;3.90;;;2.87;;
67717;SDS011;54511;47.532;19.180;2023-05-07T00:46:38;3.30;;;2.40;;
67717;SDS011;54511;47.532;19.180;2023-05-07T00:49:45;5.18;;;2.92;;
67717;SDS011;54511;47.532;19.180;2023-05-07T00:53:13;3.37;;;2.17;;
67717;SDS011;54511;47.532;19.180;2023-05-07T00:56:40;5.85;;;2.10;;
67717;SDS011;54511;47.532;19.180;2023-05-07T01:00:09;3.78;;;2.42;;
67717;SDS011;54511;47.532;19.180;2023-05-07T01:03:38;9.18;;;2.00;;
67717;SDS011;54511;47.532;19.180;2023-05-07T01:06:49;2.95;;;1.90;;
67717;SDS011;54511;47.532;19.180;2023-05-07T01:10:16;4.12;;;2.87;;
67717;SDS011;54511;47.532;19.180;2023-05-07T01:13:39;7.97;;;2.50;;
67717;SDS011;54511;47.532;19.180;2023-05-07T01:16:46;4.80;;;2.78;;
67717;SDS011;54511;47.532;19.180;2023-05-07T01:20:15;7.12;;;3.50;;
67717;SDS011;54511;47.532;19.180;2023-05-07T01:23:26;4.40;;;2.92;;
67717;SDS011;54511;47.532;19.180;2023-05-07T01:26:55;7.30;;;3.90;;
67717;SDS011;54511;47.532;19.180;2023-05-07T01:30:23;3.92;;;2.20;;
67717;SDS011;54511;47.532;19.180;2023-05-07T01:33:52;6.10;;;2.25;;
67717;SDS011;54511;47.532;19.180;2023-05-07T01:36:59;2.95;;;1.92;;
67717;SDS011;54511;47.532;19.180;2023-05-07T01:40:31;6.97;;;2.90;;
67717;SDS011;54511;47.532;19.180;2023-05-07T01:43:40;3.28;;;2.58;;
67717;SDS011;54511;47.532;19.180;2023-05-07T01:47:01;3.85;;;2.60;;
67717;SDS011;54511;47.532;19.180;2023-05-07T01:50:30;8.32;;;3.65;;
67717;SDS011;54511;47.532;19.180;2023-05-07T01:53:58;5.75;;;3.42;;
67717;SDS011;54511;47.532;19.180;2023-05-07T01:57:09;3.42;;;2.42;;
67717;SDS011;54511;47.532;19.180;2023-05-07T02:00:40;5.37;;;2.58;;
67717;SDS011;54511;47.532;19.180;2023-05-07T02:03:57;7.82;;;4.37;;
67717;SDS011;54511;47.532;19.180;2023-05-07T02:06:58;4.20;;;2.90;;
67717;SDS011;54511;47.532;19.180;2023-05-07T02:09:58;4.80;;;3.17;;
67717;SDS011;54511;47.532;19.180;2023-05-07T02:13:22;4.70;;;2.83;;
67717;SDS011;54511;47.532;19.180;2023-05-07T02:16:30;5.72;;;2.97;;
67717;SDS011;54511;47.532;19.180;2023-05-07T02:19:18;9.50;;;3.22;;
67717;SDS011;54511;47.532;19.180;2023-05-07T02:22:26;5.43;;;2.80;;
67717;SDS011;54511;47.532;19.180;2023-05-07T02:25:55;5.18;;;2.72;;
67717;SDS011;54511;47.532;19.180;2023-05-07T02:32:44;2.85;;;2.40;;
67717;SDS011;54511;47.532;19.180;2023-05-07T02:35:53;4.07;;;2.15;;
67717;SDS011;54511;47.532;19.180;2023-05-07T02:39:01;2.67;;;2.45;;
67717;SDS011;54511;47.532;19.180;2023-05-07T02:42:09;2.97;;;2.35;;
67717;SDS011;54511;47.532;19.180;2023-05-07T02:55:47;8.30;;;3.30;;
67717;SDS011;54511;47.532;19.180;2023-05-07T02:59:15;4.30;;;2.33;;
67717;SDS011;54511;47.532;19.180;2023-05-07T03:02:22;2.55;;;2.35;;
67717;SDS011;54511;47.532;19.180;2023-05-07T03:05:30;2.58;;;1.95;;
67717;SDS011;54511;47.532;19.180;2023-05-07T03:08:58;3.70;;;2.47;;
67717;SDS011;54511;47.532;19.180;2023-05-07T03:11:58;3.47;;;2.23;;
67717;SDS011;54511;47.532;19.180;2023-05-07T03:18:31;3.78;;;2.47;;
67717;SDS011;54511;47.532;19.180;2023-05-07T03:21:34;4.37;;;3.03;;
67717;SDS011;54511;47.532;19.180;2023-05-07T03:24:51;5.25;;;3.30;;
67717;SDS011;54511;47.532;19.180;2023-05-07T03:28:12;3.78;;;1.27;;
67717;SDS011;54511;47.532;19.180;2023-05-07T03:31:39;2.87;;;1.92;;
67717;SDS011;54511;47.532;19.180;2023-05-07T03:34:44;3.85;;;2.53;;
67717;SDS011;54511;47.532;19.180;2023-05-07T03:38:12;4.05;;;2.12;;
67717;SDS011;54511;47.532;19.180;2023-05-07T03:41:30;3.53;;;2.35;;
67717;SDS011;54511;47.532;19.180;2023-05-07T03:45:07;3.90;;;2.70;;
67717;SDS011;54511;47.532;19.180;2023-05-07T03:47:51;4.20;;;2.37;;
67717;SDS011;54511;47.532;19.180;2023-05-07T03:51:34;4.40;;;2.35;;
67717;SDS011;54511;47.532;19.180;2023-05-07T03:54:58;3.40;;;2.87;;
67717;SDS011;54511;47.532;19.180;2023-05-07T03:58:20;3.08;;;2.45;;
67717;SDS011;54511;47.532;19.180;2023-05-07T04:01:07;4.70;;;2.83;;
67717;SDS011;54511;47.532;19.180;2023-05-07T04:03:55;3.85;;;2.87;;
67717;SDS011;54511;47.532;19.180;2023-05-07T04:07:25;4.43;;;2.72;;
67717;SDS011;54511;47.532;19.180;2023-05-07T04:10:56;3.92;;;2.67;;
67717;SDS011;54511;47.532;19.180;2023-05-07T04:14:04;3.33;;;3.00;;
67717;SDS011;54511;47.532;19.180;2023-05-07T04:17:33;5.85;;;3.42;;
67717;SDS011;54511;47.532;19.180;2023-05-07T04:20:41;4.28;;;2.20;;
67717;SDS011;54511;47.532;19.180;2023-05-07T04:23:50;3.75;;;2.22;;
67717;SDS011;54511;47.532;19.180;2023-05-07T04:27:00;4.68;;;2.47;;
67717;SDS011;54511;47.532;19.180;2023-05-07T04:30:09;3.05;;;2.08;;
67717;SDS011;54511;47.532;19.180;2023-05-07T04:33:17;4.32;;;2.33;;
67717;SDS011;54511;47.532;19.180;2023-05-07T04:36:06;6.35;;;3.80;;
67717;SDS011;54511;47.532;19.180;2023-05-07T04:39:34;6.43;;;3.05;;
67717;SDS011;54511;47.532;19.180;2023-05-07T04:43:17;4.32;;;2.55;;
67717;SDS011;54511;47.532;19.180;2023-05-07T04:46:25;6.85;;;3.30;;
67717;SDS011;54511;47.532;19.180;2023-05-07T04:49:33;2.30;;;2.00;;
67717;SDS011;54511;47.532;19.180;2023-05-07T04:52:36;3.33;;;2.65;;
67717;SDS011;54511;47.532;19.180;2023-05-07T04:59:21;3.35;;;2.53;;
67717;SDS011;54511;47.532;19.180;2023-05-07T05:02:28;3.20;;;2.87;;
67717;SDS011;54511;47.532;19.180;2023-05-07T05:05:43;10.18;;;4.35;;
67717;SDS011;54511;47.532;19.180;2023-05-07T05:09:07;5.20;;;3.35;;
67717;SDS011;54511;47.532;19.180;2023-05-07T05:12:35;7.82;;;4.07;;
67717;SDS011;54511;47.532;19.180;2023-05-07T05:16:14;3.35;;;1.92;;
67717;SDS011;54511;47.532;19.180;2023-05-07T05:19:43;5.15;;;3.83;;
67717;SDS011;54511;47.532;19.180;2023-05-07T05:23:11;10.23;;;3.83;;
67717;SDS011;54511;47.532;19.180;2023-05-07T05:25:58;5.30;;;3.60;;
67717;SDS011;54511;47.532;19.180;2023-05-07T05:29:05;9.35;;;4.90;;
67717;SDS011;54511;47.532;19.180;2023-05-07T05:32:18;4.15;;;3.00;;
67717;SDS011;54511;47.532;19.180;2023-05-07T05:35:45;6.72;;;4.15;;
67717;SDS011;54511;47.532;19.180;2023-05-07T05:38:57;5.95;;;4.47;;
67717;SDS011;54511;47.532;19.180;2023-05-07T05:41:44;8.40;;;4.12;;
67717;SDS011;54511;47.532;19.180;2023-05-07T05:44:51;7.62;;;4.43;;
67717;SDS011;54511;47.532;19.180;2023-05-07T05:47:43;6.68;;;3.85;;
67717;SDS011;54511;47.532;19.180;2023-05-07T05:51:12;8.35;;;3.62;;
67717;SDS011;54511;47.532;19.180;2023-05-07T05:53:59;7.43;;;4.35;;
67717;SDS011;54511;47.532;19.180;2023-05-07T05:57:28;7.37;;;3.28;;
67717;SDS011;54511;47.532;19.180;2023-05-07T06:00:35;6.37;;;3.08;;
67717;SDS011;54511;47.532;19.180;2023-05-07T06:04:20;4.35;;;3.17;;
67717;SDS011;54511;47.532;19.180;2023-05-07T06:07:28;12.32;;;3.10;;
67717;SDS011;54511;47.532;19.180;2023-05-07T06:10:42;9.82;;;3.65;;
67717;SDS011;54511;47.532;19.180;2023-05-07T06:13:42;4.57;;;2.83;;
67717;SDS011;54511;47.532;19.180;2023-05-07T06:16:45;4.93;;;3.12;;
67717;SDS011;54511;47.532;19.180;2023-05-07T06:20:02;3.55;;;2.78;;
67717;SDS011;54511;47.532;19.180;2023-05-07T06:23:37;5.18;;;2.33;;
67717;SDS011;54511;47.532;19.180;2023-05-07T06:26:50;4.82;;;2.95;;
67717;SDS011;54511;47.532;19.180;2023-05-07T06:30:03;2.85;;;1.70;;
67717;SDS011;54511;47.532;19.180;2023-05-07T06:33:12;3.08;;;2.60;;
67717;SDS011;54511;47.532;19.180;2023-05-07T06:36:48;4.53;;;2.42;;
67717;SDS011;54511;47.532;19.180;2023-05-07T06:39:50;2.37;;;1.67;;
67717;SDS011;54511;47.532;19.180;2023-05-07T06:42:59;3.08;;;2.15;;
67717;SDS011;54511;47.532;19.180;2023-05-07T06:46:24;4.00;;;1.50;;
67717;SDS011;54511;47.532;19.180;2023-05-07T06:49:40;3.40;;;1.48;;
67717;SDS011;54511;47.532;19.180;2023-05-07T06:52:56;1.95;;;1.58;;
67717;SDS011;54511;47.532;19.180;2023-05-07T06:55:59;2.37;;;0.80;;
67717;SDS011;54511;47.532;19.180;2023-05-07T06:59:31;3.40;;;1.30;;
67717;SDS011;54511;47.532;19.180;2023-05-07T07:02:19;2.75;;;1.52;;
67717;SDS011;54511;47.532;19.180;2023-05-07T07:06:08;2.03;;;1.55;;
67717;SDS011;54511;47.532;19.180;2023-05-07T07:09:17;2.60;;;1.70;;
67717;SDS011;54511;47.532;19.180;2023-05-07T07:12:35;3.85;;;1.62;;
67717;SDS011;54511;47.532;19.180;2023-05-07T07:15:27;2.42;;;1.50;;
67717;SDS011;54511;47.532;19.180;2023-05-07T07:18:33;2.10;;;1.20;;
67717;SDS011;54511;47.532;19.180;2023-05-07T07:21:50;3.00;;;1.58;;
67717;SDS011;54511;47.532;19.180;2023-05-07T07:25:01;1.40;;;1.30;;
67717;SDS011;54511;47.532;19.180;2023-05-07T07:28:20;2.10;;;1.45;;
67717;SDS011;54511;47.532;19.180;2023-05-07T07:31:33;2.80;;;1.23;;
67717;SDS011;54511;47.532;19.180;2023-05-07T07:34:28;1.35;;;1.02;;
67717;SDS011;54511;47.532;19.180;2023-05-07T07:37:35;0.77;;;0.77;;
67717;SDS011;54511;47.532;19.180;2023-05-07T07:44:27;1.60;;;1.50;;
67717;SDS011;54511;47.532;19.180;2023-05-07T07:51:23;1.10;;;1.00;;
67717;SDS011;54511;47.532;19.180;2023-05-07T16:06:25;2.90;;;1.30;;
67717;SDS011;54511;47.532;19.180;2023-05-07T18:07:44;1.17;;;0.80;;
67717;SDS011;54511;47.532;19.180;2023-05-07T18:11:06;1.62;;;0.90;;
67717;SDS011;54511;47.532;19.180;2023-05-07T18:17:13;2.30;;;1.40;;
67717;SDS011;54511;47.532;19.180;2023-05-07T18:21:17;3.22;;;1.70;;
67717;SDS011;54511;47.532;19.180;2023-05-07T18:31:22;1.08;;;0.85;;
67717;SDS011;54511;47.532;19.180;2023-05-07T18:38:29;1.20;;;0.73;;
67717;SDS011;54511;47.532;19.180;2023-05-07T18:41:50;2.37;;;1.30;;
67717;SDS011;54511;47.532;19.180;2023-05-07T18:44:51;2.28;;;1.33;;
67717;SDS011;54511;47.532;19.180;2023-05-07T18:51:55;1.55;;;0.95;;
67717;SDS011;54511;47.532;19.180;2023-05-07T18:54:37;2.65;;;1.15;;
67717;SDS011;54511;47.532;19.180;2023-05-07T18:57:09;2.53;;;1.80;;
67717;SDS011;54511;47.532;19.180;2023-05-07T19:00:31;2.42;;;1.33;;
67717;SDS011;54511;47.532;19.180;2023-05-07T19:03:49;3.50;;;1.50;;
67717;SDS011;54511;47.532;19.180;2023-05-07T19:09:49;2.78;;;1.33;;
67717;SDS011;54511;47.532;19.180;2023-05-07T19:12:39;0.90;;;0.77;;
67717;SDS011;54511;47.532;19.180;2023-05-07T19:15:27;2.33;;;1.05;;
67717;SDS011;54511;47.532;19.180;2023-05-07T19:18:00;1.00;;;0.90;;
67717;SDS011;54511;47.532;19.180;2023-05-07T19:20:48;1.20;;;1.00;;
67717;SDS011;54511;47.532;19.180;2023-05-07T19:26:54;0.93;;;0.70;;
67717;SDS011;54511;47.532;19.180;2023-05-07T19:33:06;0.85;;;0.75;;
67717;SDS011;54511;47.532;19.180;2023-05-07T19:35:54;0.60;;;0.60;;
67717;SDS011;54511;47.532;19.180;2023-05-07T19:39:49;0.30;;;0.30;;
67717;SDS011;54511;47.532;19.180;2023-05-07T19:46:11;1.20;;;0.82;;
67717;SDS011;54511;47.532;19.180;2023-05-07T19:53:06;1.15;;;0.77;;
67717;SDS011;54511;47.532;19.180;2023-05-07T20:18:05;0.62;;;0.60;;
67717;SDS011;54511;47.532;19.180;2023-05-07T20:21:39;0.60;;;0.45;;
67717;SDS011;54511;47.532;19.180;2023-05-07T20:25:40;0.77;;;0.40;;
67717;SDS011;54511;47.532;19.180;2023-05-07T20:29:12;0.85;;;0.70;;
67717;SDS011;54511;47.532;19.180;2023-05-07T20:35:46;0.25;;;0.10;;
67717;SDS011;54511;47.532;19.180;2023-05-07T20:42:35;0.60;;;0.60;;
67717;SDS011;54511;47.532;19.180;2023-05-07T20:56:20;1.70;;;0.88;;
67717;SDS011;54511;47.532;19.180;2023-05-07T21:03:21;0.37;;;0.37;;
67717;SDS011;54511;47.532;19.180;2023-05-07T21:19:26;1.70;;;0.77;;
67717;SDS011;54511;47.532;19.180;2023-05-07T21:22:39;0.25;;;0.10;;
67717;SDS011;54511;47.532;19.180;2023-05-07T21:26:16;0.60;;;0.32;;
67717;SDS011;54511;47.532;19.180;2023-05-07T21:29:55;0.57;;;0.30;;
67717;SDS011;54511;47.532;19.180;2023-05-07T21:33:32;0.50;;;0.30;;
67717;SDS011;54511;47.532;19.180;2023-05-07T21:36:48;0.50;;;0.50;;
67717;SDS011;54511;47.532;19.180;2023-05-07T21:40:18;0.75;;;0.60;;
67717;SDS011;54511;47.532;19.180;2023-05-07T21:43:21;1.08;;;0.65;;
67717;SDS011;54511;47.532;19.180;2023-05-07T21:46:34;1.15;;;0.75;;
67717;SDS011;54511;47.532;19.180;2023-05-07T21:49:59;0.50;;;0.50;;
67717;SDS011;54511;47.532;19.180;2023-05-07T21:53:32;0.52;;;0.52;;
67717;SDS011;54511;47.532;19.180;2023-05-07T21:57:13;1.20;;;0.88;;
67717;SDS011;54511;47.532;19.180;2023-05-07T22:00:45;0.80;;;0.80;;
67717;SDS011;54511;47.532;19.180;2023-05-07T22:07:13;0.70;;;0.70;;
67717;SDS011;54511;47.532;19.180;2023-05-07T22:10:03;1.12;;;0.70;;
67717;SDS011;54511;47.532;19.180;2023-05-07T22:13:09;0.82;;;0.60;;
67717;SDS011;54511;47.532;19.180;2023-05-07T22:16:12;1.40;;;0.60;;
67717;SDS011;54511;47.532;19.180;2023-05-07T22:19:11;1.10;;;0.80;;
67717;SDS011;54511;47.532;19.180;2023-05-07T22:22:29;1.37;;;1.08;;
67717;SDS011;54511;47.532;19.180;2023-05-07T22:26:09;0.75;;;0.75;;
67717;SDS011;54511;47.532;19.180;2023-05-07T22:29:14;0.55;;;0.40;;
67717;SDS011;54511;47.532;19.180;2023-05-07T22:32:22;0.62;;;0.62;;
67717;SDS011;54511;47.532;19.180;2023-05-07T22:35:59;1.40;;;0.88;;
67717;SDS011;54511;47.532;19.180;2023-05-07T22:39:40;0.77;;;0.77;;
67717;SDS011;54511;47.532;19.180;2023-05-07T22:43:22;1.37;;;0.73;;
67717;SDS011;54511;47.532;19.180;2023-05-07T22:46:42;1.87;;;1.20;;
67717;SDS011;54511;47.532;19.180;2023-05-07T22:50:11;0.60;;;0.60;;
67717;SDS011;54511;47.532;19.180;2023-05-07T22:53:28;2.60;;;1.33;;
67717;SDS011;54511;47.532;19.180;2023-05-07T22:56:59;1.67;;;1.00;;
67717;SDS011;54511;47.532;19.180;2023-05-07T23:00:38;0.90;;;0.40;;
67717;SDS011;54511;47.532;19.180;2023-05-07T23:04:06;1.00;;;0.82;;
67717;SDS011;54511;47.532;19.180;2023-05-07T23:07:33;0.40;;;0.40;;
67717;SDS011;54511;47.532;19.180;2023-05-07T23:10:42;0.95;;;0.73;;
67717;SDS011;54511;47.532;19.180;2023-05-07T23:14:17;0.60;;;0.60;;
67717;SDS011;54511;47.532;19.180;2023-05-07T23:17:09;0.45;;;0.45;;
67717;SDS011;54511;47.532;19.180;2023-05-07T23:20:47;0.68;;;0.50;;
67717;SDS011;54511;47.532;19.180;2023-05-07T23:24:25;1.62;;;0.95;;
67717;SDS011;54511;47.532;19.180;2023-05-07T23:27:14;1.55;;;0.80;;
67717;SDS011;54511;47.532;19.180;2023-05-07T23:30:50;0.55;;;0.55;;
67717;SDS011;54511;47.532;19.180;2023-05-07T23:34:24;1.77;;;1.25;;
67717;SDS011;54511;47.532;19.180;2023-05-07T23:37:15;0.73;;;0.65;;
67717;SDS011;54511;47.532;19.180;2023-05-07T23:40:42;0.30;;;0.30;;
67717;SDS011;54511;47.532;19.180;2023-05-07T23:44:15;6.30;;;1.65;;
67717;SDS011;54511;47.532;19.180;2023-05-07T23:47:41;0.50;;;0.50;;
67717;SDS011;54511;47.532;19.180;2023-05-07T23:51:15;1.00;;;0.70;;
67717;SDS011;54511;47.532;19.180;2023-05-07T23:58:01;0.98;;;0.98;;
